Time;durP1;ratioP1;P1;durP2;ratioP2;P2;SDS_P1;SDS_P2;PMS_P1;PMS_P2;Temp;Humidity;BMP_temperature;BMP_pressure;BME280_temperature;BME280_humidity;BME280_pressure;Samples;Min_cycle;Max_cycle;Signal;HPM_P1;HPM_P2
2023/09/05 00:01:03;;;;;;;0.10;0.10;;;;;;;19.65;100.00;101765.91;2079726;28;20188;-69
2023/09/05 00:02:04;;;;;;;0.00;0.00;;;;;;;19.66;100.00;101763.91;2079083;28;20169;-69
2023/09/05 00:03:04;;;;;;;0.10;0.10;;;;;;;19.66;100.00;101763.91;2079651;28;20419;-69
2023/09/05 00:04:04;;;;;;;0.07;0.07;;;;;;;19.64;100.00;101761.53;2078713;28;20629;-69
2023/09/05 00:05:07;;;;;;;0.10;0.10;;;;;;;18.68;100.00;101605.09;2079245;28;20235;-69
2023/09/05 00:06:10;;;;;;;0.00;0.00;;;;;;;19.63;100.00;101756.38;2081930;28;20185;-69
2023/09/05 00:07:11;;;;;;;0.10;0.10;;;;;;;19.64;100.00;101755.13;2079872;28;20518;-69
2023/09/05 00:08:11;;;;;;;0.10;0.10;;;;;;;19.52;100.00;101739.97;2080049;28;20921;-69
2023/09/05 00:09:13;;;;;;;0.10;0.10;;;;;;;19.63;100.00;101756.38;2078467;28;20319;-69
2023/09/05 00:10:13;;;;;;;0.10;0.10;;;;;;;19.61;100.00;101754.06;2086561;28;20184;-69
2023/09/05 00:11:14;;;;;;;0.00;0.00;;;;;;;19.53;100.00;101733.09;2086557;28;20975;-69
2023/09/05 00:12:14;;;;;;;0.10;0.10;;;;;;;19.62;100.00;101763.25;2078990;28;20570;-69
2023/09/05 00:13:15;;;;;;;0.10;0.10;;;;;;;19.60;100.00;101762.97;2079767;28;20576;-69
2023/09/05 00:14:18;;;;;;;0.10;0.10;;;;;;;19.58;100.00;101771.84;2080479;28;20192;-69
2023/09/05 00:15:18;;;;;;;0.10;0.10;;;;;;;18.82;100.00;101655.03;2085687;28;20219;-69
2023/09/05 00:16:19;;;;;;;0.00;0.00;;;;;;;19.58;100.00;101768.25;2086529;28;20516;-69
2023/09/05 00:17:19;;;;;;;0.10;0.10;;;;;;;19.56;100.00;101774.38;2084635;28;20184;-69
2023/09/05 00:18:19;;;;;;;0.10;0.10;;;;;;;19.56;100.00;101773.56;2079439;28;20185;-68
2023/09/05 00:19:20;;;;;;;0.10;0.10;;;;;;;19.55;100.00;101769.97;2078715;28;20187;-69
2023/09/05 00:20:20;;;;;;;0.10;0.10;;;;;;;19.47;100.00;101765.91;2079521;28;20577;-69
2023/09/05 00:21:21;;;;;;;0.10;0.10;;;;;;;19.52;100.00;101768.09;2079680;28;20543;-69
2023/09/05 00:22:23;;;;;;;0.10;0.10;;;;;;;19.50;100.00;101775.44;2079564;28;20497;-69
2023/09/05 00:23:24;;;;;;;0.47;0.10;;;;;;;19.49;100.00;101776.69;2080033;28;20181;-69
2023/09/05 00:24:31;;;;;;;0.10;0.10;;;;;;;19.46;100.00;101774.78;2080090;28;20440;-69
2023/09/05 00:25:32;;;;;;;0.10;0.10;;;;;;;19.47;100.00;101779.16;2082153;28;20450;-69
2023/09/05 00:26:33;;;;;;;0.20;0.20;;;;;;;19.46;100.00;101772.78;2078959;28;20442;-69
2023/09/05 00:27:35;;;;;;;0.10;0.10;;;;;;;19.44;100.00;101785.75;2079528;28;20514;-69
2023/09/05 00:28:35;;;;;;;0.00;0.00;;;;;;;18.82;100.00;101691.53;2080241;28;20180;-69
2023/09/05 00:29:36;;;;;;;0.00;0.00;;;;;;;19.08;100.00;101747.03;2086248;28;20791;-69
2023/09/05 00:30:37;;;;;;;0.10;0.10;;;;;;;19.38;100.00;101791.19;2079390;28;20228;-69
2023/09/05 00:31:40;;;;;;;0.10;0.10;;;;;;;19.38;100.00;101791.19;2080436;28;20192;-69
2023/09/05 00:32:40;;;;;;;0.00;0.00;;;;;;;19.36;100.00;101787.28;2079322;28;20211;-69
2023/09/05 00:33:41;;;;;;;0.20;0.10;;;;;;;19.38;100.00;101794.00;2079222;28;20504;-69
2023/09/05 00:34:41;;;;;;;0.10;0.10;;;;;;;19.38;100.00;101796.00;2078782;28;20188;-69
2023/09/05 00:35:42;;;;;;;0.10;0.10;;;;;;;19.36;100.00;101787.28;2079517;28;20195;-69
2023/09/05 00:36:43;;;;;;;0.10;0.10;;;;;;;19.38;100.00;101788.38;2079312;28;20188;-69
2023/09/05 00:37:43;;;;;;;0.00;0.00;;;;;;;19.38;100.00;101798.81;2078936;28;20426;-69
2023/09/05 00:38:47;;;;;;;0.10;0.10;;;;;;;18.75;100.00;101701.06;2078921;28;20189;-69
2023/09/05 00:39:48;;;;;;;0.10;0.10;;;;;;;19.00;100.00;101739.38;2078995;28;20746;-69
2023/09/05 00:40:49;;;;;;;0.10;0.10;;;;;;;19.36;100.00;101790.88;2086388;28;20876;-69
2023/09/05 00:41:50;;;;;;;0.00;0.00;;;;;;;19.00;100.00;101730.94;2081695;28;20193;-69
2023/09/05 00:42:50;;;;;;;0.00;0.00;;;;;;;19.31;100.00;101782.25;2081512;28;20486;-69
2023/09/05 00:43:52;;;;;;;0.10;0.10;;;;;;;19.40;100.00;101797.09;2082728;28;20599;-69
2023/09/05 00:44:52;;;;;;;0.10;0.10;;;;;;;19.42;100.00;101791.81;2084127;28;20646;-69
2023/09/05 00:45:55;;;;;;;0.10;0.10;;;;;;;19.44;100.00;101797.00;2079744;28;20815;-69
2023/09/05 00:47:00;;;;;;;0.10;0.10;;;;;;;19.45;100.00;101790.09;2078743;28;20185;-70
2023/09/05 00:48:02;;;;;;;0.10;0.10;;;;;;;19.47;100.00;101798.84;2079243;28;20482;-69
2023/09/05 00:49:02;;;;;;;0.10;0.10;;;;;;;19.48;100.00;101795.56;2078978;28;20419;-69
2023/09/05 00:50:05;;;;;;;0.00;0.00;;;;;;;19.51;100.00;101797.47;2078185;28;20436;-69
2023/09/05 00:51:07;;;;;;;0.20;0.20;;;;;;;19.53;100.00;101794.97;2078985;28;20246;-69
2023/09/05 00:52:10;;;;;;;0.00;0.00;;;;;;;19.54;100.00;101802.16;2079005;28;20430;-69
2023/09/05 00:53:10;;;;;;;0.10;0.10;;;;;;;19.55;100.00;101803.69;2079870;28;20443;-69
2023/09/05 00:54:11;;;;;;;0.10;0.10;;;;;;;18.63;100.00;101662.63;2078707;28;20467;-69
2023/09/05 00:55:12;;;;;;;0.00;0.00;;;;;;;19.56;100.00;101808.09;2078338;28;20362;-69
2023/09/05 00:56:12;;;;;;;0.10;0.10;;;;;;;19.60;100.00;101805.13;2078324;28;20805;-69
2023/09/05 00:57:17;;;;;;;0.67;0.50;;;;;;;19.45;100.00;101799.31;2078947;28;20271;-69
2023/09/05 00:58:19;;;;;;;0.23;0.20;;;;;;;19.63;100.00;101798.56;2078681;28;20216;-69
2023/09/05 00:59:20;;;;;;;0.10;0.10;;;;;;;19.65;100.00;101801.72;2077973;28;20546;-69
2023/09/05 01:00:21;;;;;;;0.10;0.10;;;;;;;18.82;100.00;101661.44;2078421;28;20451;-69
2023/09/05 01:01:22;;;;;;;0.20;0.20;;;;;;;19.73;100.00;101795.31;2079277;28;20447;-69
2023/09/05 01:02:22;;;;;;;0.10;0.10;;;;;;;19.72;100.00;101798.56;2079018;28;20199;-69
2023/09/05 01:03:23;;;;;;;0.10;0.10;;;;;;;19.73;100.00;101797.31;2082055;28;20215;-69
2023/09/05 01:04:25;;;;;;;0.20;0.20;;;;;;;19.70;100.00;101778.59;2085178;28;20207;-69
2023/09/05 01:05:29;;;;;;;0.10;0.10;;;;;;;19.78;100.00;101791.88;2078728;28;20183;-69
2023/09/05 01:07:00;;;;;;;0.20;0.20;;;;;;;19.75;100.00;101783.59;2086672;28;20943;-69
2023/09/05 01:08:09;;;;;;;0.00;0.00;;;;;;;19.47;100.00;101751.84;2080051;28;20455;-69
2023/09/05 01:09:32;;;;;;;0.10;0.10;;;;;;;19.75;100.00;101780.78;2082951;28;20486;-69
2023/09/05 01:10:47;;;;;;;0.10;0.10;;;;;;;19.72;100.00;101781.69;2080414;28;20835;-69
2023/09/05 01:11:48;;;;;;;0.10;0.10;;;;;;;19.71;100.00;101783.72;2080103;28;20439;-69
2023/09/05 01:12:49;;;;;;;0.10;0.10;;;;;;;19.66;100.00;101798.41;2079254;28;20483;-69
2023/09/05 01:13:49;;;;;;;0.10;0.10;;;;;;;19.67;100.00;101782.31;2079649;28;20264;-69
2023/09/05 01:14:50;;;;;;;0.10;0.10;;;;;;;19.66;100.00;101783.56;2081615;28;20283;-69
2023/09/05 01:15:51;;;;;;;0.20;0.20;;;;;;;19.14;100.00;101688.97;2084294;28;20302;-69
2023/09/05 01:16:53;;;;;;;0.10;0.10;;;;;;;19.66;100.00;101770.28;2078100;28;20177;-69
2023/09/05 01:17:54;;;;;;;0.10;0.10;;;;;;;19.69;100.00;101774.19;2078931;28;20435;-69
2023/09/05 01:18:54;;;;;;;0.10;0.10;;;;;;;19.61;100.00;101768.13;2078748;28;20481;-69
2023/09/05 01:20:03;;;;;;;0.00;0.00;;;;;;;19.71;100.00;101775.28;2079180;28;20422;-69
2023/09/05 01:21:10;;;;;;;0.00;0.00;;;;;;;19.74;100.00;101776.38;2079224;28;20203;-69
2023/09/05 01:22:21;;;;;;;0.00;0.00;;;;;;;19.75;100.00;101769.53;2079297;28;20419;-69
2023/09/05 01:23:31;;;;;;;0.10;0.10;;;;;;;19.70;100.00;101768.09;2085182;28;20928;-69
2023/09/05 01:24:35;;;;;;;0.17;0.17;;;;;;;19.73;100.00;101777.63;2078765;28;20420;-69
2023/09/05 01:25:36;;;;;;;0.10;0.10;;;;;;;19.66;100.00;101766.72;2079154;28;20453;-69
2023/09/05 01:26:38;;;;;;;0.00;0.00;;;;;;;19.71;100.00;101778.09;2078651;28;20423;-69
2023/09/05 01:27:39;;;;;;;0.20;0.20;;;;;;;18.89;100.00;101652.72;2087001;28;20188;-69
2023/09/05 01:28:44;;;;;;;0.10;0.10;;;;;;;19.77;100.00;101781.09;2081436;28;20466;-69
2023/09/05 01:29:45;;;;;;;0.10;0.10;;;;;;;19.76;100.00;101780.28;2080534;28;20189;-69
2023/09/05 01:30:45;;;;;;;0.10;0.10;;;;;;;19.78;100.00;101777.00;2080331;28;20535;-69
2023/09/05 01:31:46;;;;;;;0.10;0.10;;;;;;;19.78;100.00;101779.81;2079070;28;20455;-69
2023/09/05 01:32:47;;;;;;;0.10;0.10;;;;;;;19.79;100.00;101772.94;2078923;28;20189;-69
2023/09/05 01:33:47;;;;;;;0.20;0.20;;;;;;;19.82;100.00;101777.66;2078507;28;20231;-69
2023/09/05 01:34:47;;;;;;;0.10;0.10;;;;;;;19.82;100.00;101786.09;2078204;28;20211;-69
2023/09/05 01:35:48;;;;;;;2.73;1.17;;;;;;;19.88;100.00;101787.03;2079086;28;20716;-69
2023/09/05 01:36:48;;;;;;;0.20;0.20;;;;;;;19.88;100.00;101779.38;2079573;28;20304;-69
2023/09/05 01:37:49;;;;;;;0.10;0.10;;;;;;;19.91;100.00;101778.41;2081273;28;20189;-69
2023/09/05 01:38:49;;;;;;;0.10;0.10;;;;;;;19.83;100.00;101774.38;2080796;28;20290;-69
2023/09/05 01:39:50;;;;;;;0.47;0.27;;;;;;;19.96;100.00;101793.91;2082498;28;20276;-69
2023/09/05 01:40:50;;;;;;;0.07;0.07;;;;;;;19.94;100.00;101785.94;2081037;28;20665;-69
2023/09/05 01:41:51;;;;;;;0.10;0.10;;;;;;;19.28;100.00;101682.78;2085422;28;20569;-69
2023/09/05 01:42:51;;;;;;;0.10;0.10;;;;;;;19.79;100.00;101758.88;2086379;28;20724;-69
2023/09/05 01:43:52;;;;;;;0.20;0.20;;;;;;;19.94;100.00;101788.75;2079117;28;20247;-69
2023/09/05 01:44:52;;;;;;;0.20;0.20;;;;;;;19.94;100.00;101797.19;2079119;28;20572;-69
2023/09/05 01:45:53;;;;;;;0.40;0.40;;;;;;;19.93;100.00;101790.00;2079405;28;20197;-69
2023/09/05 01:46:53;;;;;;;0.00;0.00;;;;;;;19.96;100.00;101794.69;2080499;28;20661;-69
2023/09/05 01:47:53;;;;;;;0.20;0.20;;;;;;;19.93;100.00;101795.63;2081933;28;20303;-69
2023/09/05 01:48:54;;;;;;;0.10;0.10;;;;;;;19.97;100.00;101796.28;2078189;28;20223;-69
2023/09/05 01:49:54;;;;;;;0.20;0.20;;;;;;;19.99;100.00;101802.19;2079379;28;20728;-69
2023/09/05 01:50:55;;;;;;;0.10;0.10;;;;;;;19.98;100.00;101808.28;2078200;28;20906;-69
2023/09/05 01:51:55;;;;;;;0.27;0.10;;;;;;;20.02;100.00;101808.91;2078457;28;20713;-69
2023/09/05 01:52:55;;;;;;;0.20;0.20;;;;;;;20.03;100.00;101808.47;2078794;28;20655;-69
2023/09/05 01:53:56;;;;;;;0.10;0.10;;;;;;;20.02;100.00;101808.91;2085401;28;20188;-69
2023/09/05 01:54:56;;;;;;;0.00;0.00;;;;;;;20.02;100.00;101815.34;2080825;28;20243;-69
2023/09/05 01:55:57;;;;;;;0.17;0.17;;;;;;;20.02;100.00;101809.72;2078277;28;20201;-69
2023/09/05 01:56:58;;;;;;;0.10;0.00;;;;;;;20.03;100.00;101810.47;2078915;28;20670;-69
2023/09/05 01:57:58;;;;;;;0.10;0.10;;;;;;;20.04;100.00;101807.19;2079054;28;20815;-69
2023/09/05 01:58:59;;;;;;;0.10;0.10;;;;;;;20.07;100.00;101809.09;2079026;28;20607;-69
2023/09/05 01:59:59;;;;;;;0.10;0.10;;;;;;;19.96;100.00;101791.88;2078537;28;20173;-69
2023/09/05 02:01:03;;;;;;;0.00;0.00;;;;;;;20.08;100.00;101804.25;2079073;28;20274;-69
2023/09/05 02:02:03;;;;;;;0.10;0.10;;;;;;;20.08;100.00;101807.06;2078755;28;20189;-69
2023/09/05 02:03:04;;;;;;;0.10;0.10;;;;;;;20.06;100.00;101804.69;2078896;28;20438;-69
2023/09/05 02:04:05;;;;;;;0.10;0.10;;;;;;;20.08;100.00;101804.25;2079298;28;20220;-69
2023/09/05 02:05:06;;;;;;;0.00;0.00;;;;;;;20.07;100.00;101809.09;2079365;28;20283;-69
2023/09/05 02:06:07;;;;;;;0.10;0.10;;;;;;;20.10;100.00;101805.34;2079404;28;20246;-69
2023/09/05 02:07:08;;;;;;;0.30;0.20;;;;;;;20.12;100.00;101802.06;2078801;28;20423;-69
2023/09/05 02:08:09;;;;;;;0.03;0.03;;;;;;;20.12;100.00;101822.53;2078305;28;20181;-69
2023/09/05 02:09:09;;;;;;;0.10;0.10;;;;;;;20.05;100.00;101799.56;2077877;28;20510;-69
2023/09/05 02:10:10;;;;;;;0.00;0.00;;;;;;;20.08;100.00;101804.25;2078713;28;20189;-69
2023/09/05 02:11:10;;;;;;;0.10;0.10;;;;;;;20.06;100.00;101812.38;2079606;28;20200;-69
2023/09/05 02:12:11;;;;;;;0.10;0.10;;;;;;;20.12;100.00;101814.09;2079345;28;20832;-69
2023/09/05 02:13:12;;;;;;;0.77;0.37;;;;;;;20.15;100.00;101815.97;2078713;28;20193;-69
2023/09/05 02:14:13;;;;;;;0.00;0.00;;;;;;;20.11;100.00;101820.97;2078829;28;20216;-69
2023/09/05 02:15:13;;;;;;;0.10;0.10;;;;;;;20.13;100.00;101814.88;2078271;28;20468;-69
2023/09/05 02:16:19;;;;;;;0.10;0.10;;;;;;;20.12;100.00;101828.16;2077690;28;20277;-69
2023/09/05 02:17:20;;;;;;;0.00;0.00;;;;;;;20.05;100.00;101817.19;2084900;28;20200;-69
2023/09/05 02:18:21;;;;;;;0.00;0.00;;;;;;;19.48;100.00;101727.31;2078735;28;20430;-69
2023/09/05 02:19:23;;;;;;;0.00;0.00;;;;;;;20.12;100.00;101830.22;2077991;28;20200;-69
2023/09/05 02:20:23;;;;;;;0.10;0.10;;;;;;;20.16;100.00;101831.59;2079219;28;20192;-69
2023/09/05 02:21:24;;;;;;;0.03;0.03;;;;;;;20.17;100.00;101827.53;2079506;28;20941;-69
2023/09/05 02:22:25;;;;;;;0.10;0.10;;;;;;;20.17;100.00;101827.53;2078571;28;20647;-69
2023/09/05 02:23:26;;;;;;;0.20;0.20;;;;;;;20.17;100.00;101829.59;2078113;28;20187;-69
2023/09/05 02:24:28;;;;;;;0.10;0.10;;;;;;;20.16;100.00;101825.97;2078712;28;20227;-69
2023/09/05 02:25:28;;;;;;;0.00;0.00;;;;;;;20.18;100.00;101825.50;2078850;28;20475;-69
2023/09/05 02:26:29;;;;;;;0.10;0.10;;;;;;;20.16;100.00;101837.22;2078431;28;20171;-69
2023/09/05 02:27:29;;;;;;;0.10;0.10;;;;;;;20.19;100.00;101835.50;2079344;28;20640;-69
2023/09/05 02:28:29;;;;;;;0.17;0.10;;;;;;;20.20;100.00;101837.06;2078626;28;20670;-69
2023/09/05 02:29:32;;;;;;;0.10;0.10;;;;;;;20.19;100.00;101866.47;2078197;28;20687;-69
2023/09/05 02:30:32;;;;;;;0.10;0.10;;;;;;;20.20;100.00;101834.25;2078815;28;20340;-69
2023/09/05 02:31:33;;;;;;;0.07;0.07;;;;;;;20.09;100.00;101820.69;2078674;28;20462;-69
2023/09/05 02:32:34;;;;;;;0.00;0.00;;;;;;;20.21;100.00;101833.78;2078782;28;20195;-69
2023/09/05 02:33:36;;;;;;;0.13;0.10;;;;;;;20.21;100.00;101836.59;2079085;28;20260;-69
2023/09/05 02:34:36;;;;;;;0.20;0.20;;;;;;;20.21;100.00;101835.84;2085717;28;20852;-69
2023/09/05 02:35:37;;;;;;;0.00;0.00;;;;;;;20.21;100.00;101836.59;2078889;28;20862;-69
2023/09/05 02:36:37;;;;;;;0.10;0.10;;;;;;;20.21;100.00;101836.59;2078800;28;20550;-69
2023/09/05 02:37:38;;;;;;;0.07;0.00;;;;;;;20.17;100.00;101823.97;2079357;28;20743;-69
2023/09/05 02:38:38;;;;;;;0.10;0.10;;;;;;;20.18;100.00;101828.34;2082112;28;20319;-69
2023/09/05 02:39:38;;;;;;;0.00;0.00;;;;;;;20.18;100.00;101834.75;2078209;28;20197;-69
2023/09/05 02:42:05;;;;;;;0.10;0.10;;;;;;;20.14;100.00;101839.75;2083016;28;20216;-69
2023/09/05 02:43:05;;;;;;;0.13;0.13;;;;;;;20.01;100.00;101819.38;2080513;28;20443;-69
2023/09/05 02:44:06;;;;;;;0.20;0.20;;;;;;;20.14;100.00;101836.13;2083007;28;20192;-69
2023/09/05 02:45:07;;;;;;;0.10;0.10;;;;;;;19.95;100.00;101826.88;2086487;28;20267;-69
2023/09/05 02:46:08;;;;;;;0.10;0.10;;;;;;;20.07;100.00;101839.25;2079786;28;20181;-69
2023/09/05 02:47:08;;;;;;;0.20;0.20;;;;;;;20.04;100.00;101831.72;2079782;28;20187;-69
2023/09/05 02:48:09;;;;;;;0.10;0.10;;;;;;;20.01;100.00;101833.44;2079877;28;20443;-69
2023/09/05 02:49:09;;;;;;;0.00;0.00;;;;;;;19.97;100.00;101841.28;2079747;28;20192;-69
2023/09/05 02:50:10;;;;;;;0.37;0.37;;;;;;;19.26;100.00;101733.06;2080531;28;20199;-69
2023/09/05 02:51:11;;;;;;;0.40;0.20;;;;;;;19.36;100.00;101745.91;2080755;28;20629;-69
2023/09/05 02:52:12;;;;;;;0.20;0.10;;;;;;;19.74;100.00;101810.94;2079281;28;20204;-69
2023/09/05 02:53:12;;;;;;;0.10;0.10;;;;;;;19.95;100.00;101840.19;2080111;28;20463;-69
2023/09/05 02:54:12;;;;;;;5.43;1.20;;;;;;;19.96;100.00;101844.56;2079901;28;20718;-68
2023/09/05 02:55:13;;;;;;;0.10;0.10;;;;;;;19.92;100.00;101838.31;2079893;28;20185;-69
2023/09/05 02:56:16;;;;;;;0.00;0.00;;;;;;;19.86;100.00;101838.13;2080285;28;20184;-69
2023/09/05 02:57:16;;;;;;;0.10;0.10;;;;;;;18.89;100.00;101692.03;2080369;28;20189;-69
2023/09/05 02:58:17;;;;;;;0.40;0.40;;;;;;;19.84;100.00;101843.44;2080143;28;20440;-69
2023/09/05 02:59:17;;;;;;;0.67;0.20;;;;;;;19.77;100.00;101834.53;2078698;28;20197;-68
2023/09/05 03:00:19;;;;;;;0.10;0.10;;;;;;;19.75;100.00;101845.47;2080026;28;20275;-69
2023/09/05 03:01:20;;;;;;;0.13;0.13;;;;;;;19.74;100.00;101835.44;2084892;28;20199;-69
2023/09/05 03:02:23;;;;;;;3.70;0.73;;;;;;;19.77;100.00;101840.16;2080901;28;20995;-69
2023/09/05 03:03:24;;;;;;;0.00;0.00;;;;;;;19.78;100.00;101841.72;2087126;28;20183;-69
2023/09/05 03:04:26;;;;;;;0.40;0.40;;;;;;;19.76;100.00;101839.34;2080010;28;20493;-69
2023/09/05 03:05:27;;;;;;;0.10;0.10;;;;;;;19.16;100.00;101756.75;2080446;28;20415;-69
2023/09/05 03:06:27;;;;;;;0.10;0.10;;;;;;;19.75;100.00;101842.66;2078675;28;20439;-68
2023/09/05 03:07:28;;;;;;;0.13;0.13;;;;;;;19.69;100.00;101830.44;2078806;28;20193;-69
2023/09/05 03:08:28;;;;;;;0.10;0.10;;;;;;;19.70;100.00;101838.41;2079858;28;20195;-69
2023/09/05 03:09:29;;;;;;;0.10;0.10;;;;;;;19.72;100.00;101832.31;2078786;28;20193;-69
2023/09/05 03:10:30;;;;;;;0.10;0.10;;;;;;;19.74;100.00;101839.06;2082269;28;20669;-68
2023/09/05 03:11:30;;;;;;;0.07;0.07;;;;;;;19.72;100.00;101826.72;2087053;28;20855;-69
2023/09/05 03:12:30;;;;;;;0.10;0.10;;;;;;;19.73;100.00;101817.00;2079899;28;20177;-69
2023/09/05 03:13:31;;;;;;;0.10;0.10;;;;;;;19.72;100.00;101829.53;2080703;28;20674;-69
2023/09/05 03:14:31;;;;;;;0.13;0.13;;;;;;;19.75;100.00;101835.00;2079547;28;20217;-69
2023/09/05 03:15:32;;;;;;;0.00;0.00;;;;;;;19.72;100.00;101835.94;2079838;28;20225;-69
2023/09/05 03:16:32;;;;;;;0.40;0.40;;;;;;;19.72;100.00;101843.59;2079660;28;20253;-69
2023/09/05 03:17:32;;;;;;;0.00;0.00;;;;;;;19.62;100.00;101822.31;2079974;28;20219;-69
2023/09/05 03:18:33;;;;;;;0.10;0.10;;;;;;;19.69;100.00;101845.28;2080261;28;20231;-68
2023/09/05 03:19:33;;;;;;;0.23;0.20;;;;;;;19.59;100.00;101843.72;2085103;28;20567;-68
2023/09/05 03:20:34;;;;;;;0.00;0.00;;;;;;;19.62;100.00;101844.81;2079339;28;20185;-68
2023/09/05 03:21:34;;;;;;;0.17;0.17;;;;;;;19.61;100.00;101837.63;2080261;28;20188;-68
2023/09/05 03:22:34;;;;;;;0.10;0.10;;;;;;;19.64;100.00;101847.94;2079610;28;20204;-68
2023/09/05 03:23:36;;;;;;;0.10;0.10;;;;;;;19.63;100.00;101838.72;2080035;28;20433;-69
2023/09/05 03:24:36;;;;;;;0.17;0.17;;;;;;;19.63;100.00;101838.72;2079692;28;20189;-69
2023/09/05 03:25:37;;;;;;;0.10;0.10;;;;;;;19.68;100.00;101840.94;2080006;28;20466;-69
2023/09/05 03:26:37;;;;;;;0.00;0.00;;;;;;;18.95;100.00;101726.72;2079875;28;20662;-69
2023/09/05 03:27:39;;;;;;;0.10;0.10;;;;;;;19.69;100.00;101841.69;2080438;28;20191;-68
2023/09/05 03:28:42;;;;;;;0.10;0.10;;;;;;;19.72;100.00;101837.97;2080144;28;20193;-68
2023/09/05 03:29:42;;;;;;;0.10;0.10;;;;;;;19.71;100.00;101833.59;2079141;28;20424;-69
2023/09/05 03:30:43;;;;;;;0.00;0.00;;;;;;;19.75;100.00;101837.81;2079752;28;20949;-69
2023/09/05 03:31:43;;;;;;;0.10;0.10;;;;;;;19.77;100.00;101832.50;2079785;28;20192;-69
2023/09/05 03:32:44;;;;;;;0.00;0.00;;;;;;;19.80;100.00;101842.81;2079415;28;20191;-69
2023/09/05 03:33:44;;;;;;;0.10;0.10;;;;;;;19.61;100.00;101815.94;2080177;28;20640;-69
2023/09/05 03:34:48;;;;;;;0.07;0.07;;;;;;;19.71;100.00;101827.97;2080078;28;20271;-68
2023/09/05 03:35:49;;;;;;;0.10;0.10;;;;;;;19.82;100.00;101845.16;2084677;28;20276;-69
2023/09/05 03:36:49;;;;;;;0.10;0.10;;;;;;;19.86;100.00;101842.97;2079800;28;20427;-69
2023/09/05 03:37:50;;;;;;;0.10;0.10;;;;;;;19.88;100.00;101843.28;2080435;28;20189;-68
2023/09/05 03:38:50;;;;;;;0.10;0.10;;;;;;;19.89;100.00;101850.47;2079272;28;20181;-68
2023/09/05 03:39:51;;;;;;;0.00;0.00;;;;;;;19.82;100.00;101839.53;2079387;28;20180;-69
2023/09/05 03:40:53;;;;;;;0.00;0.00;;;;;;;19.84;100.00;101853.91;2079715;28;20716;-69
2023/09/05 03:41:53;;;;;;;0.10;0.10;;;;;;;19.77;100.00;101852.19;2082369;28;20227;-68
2023/09/05 03:42:53;;;;;;;0.10;0.10;;;;;;;19.38;100.00;101796.00;2079350;28;20486;-69
2023/09/05 03:43:54;;;;;;;0.00;0.00;;;;;;;19.70;100.00;101846.84;2079894;28;20284;-69
2023/09/05 03:44:54;;;;;;;0.27;0.20;;;;;;;19.50;100.00;101838.06;2085541;28;20188;-69
2023/09/05 03:45:55;;;;;;;0.10;0.10;;;;;;;19.61;100.00;101852.47;2080393;28;20192;-69
2023/09/05 03:46:57;;;;;;;0.20;0.20;;;;;;;19.59;100.00;101849.34;2087422;28;20228;-68
2023/09/05 03:47:57;;;;;;;0.10;0.10;;;;;;;19.62;100.00;101859.66;2079655;28;20196;-69
2023/09/05 03:48:57;;;;;;;0.10;0.10;;;;;;;19.62;100.00;101861.69;2085473;28;20462;-69
2023/09/05 03:49:58;;;;;;;0.10;0.10;;;;;;;19.59;100.00;101857.00;2081435;28;20250;-68
2023/09/05 03:50:58;;;;;;;0.10;0.10;;;;;;;19.63;100.00;101861.22;2079675;28;20212;-68
2023/09/05 03:51:59;;;;;;;0.10;0.10;;;;;;;19.64;100.00;101862.78;2079506;28;20185;-69
2023/09/05 03:52:59;;;;;;;0.30;0.30;;;;;;;19.68;100.00;101865.44;2079512;28;20188;-69
2023/09/05 03:54:01;;;;;;;0.00;0.00;;;;;;;19.62;100.00;101867.31;2079698;28;20180;-69
2023/09/05 03:55:01;;;;;;;0.10;0.10;;;;;;;19.67;100.00;101863.88;2079290;28;20187;-69
2023/09/05 03:56:02;;;;;;;0.10;0.10;;;;;;;19.69;100.00;101869.81;2079623;28;20426;-68
2023/09/05 03:57:02;;;;;;;0.10;0.10;;;;;;;19.73;100.00;101870.44;2086347;28;20642;-69
2023/09/05 03:58:04;;;;;;;0.10;0.10;;;;;;;19.37;100.00;101811.31;2081301;28;20200;-68
2023/09/05 03:59:04;;;;;;;0.10;0.10;;;;;;;19.77;100.00;101874.69;2079431;28;20712;-69
2023/09/05 04:00:07;;;;;;;0.13;0.13;;;;;;;19.11;100.00;101759.38;2078945;28;20662;-68
2023/09/05 04:01:14;;;;;;;0.20;0.20;;;;;;;19.83;100.00;101866.41;2079888;28;20188;-69
2023/09/05 04:02:15;;;;;;;0.10;0.10;;;;;;;19.86;100.00;101863.44;2084766;28;20457;-69
2023/09/05 04:03:16;;;;;;;0.10;0.10;;;;;;;19.83;100.00;101849.53;2079647;28;20514;-68
2023/09/05 04:04:16;;;;;;;0.20;0.20;;;;;;;19.84;100.00;101856.72;2086561;28;20303;-69
2023/09/05 04:05:17;;;;;;;0.10;0.10;;;;;;;19.88;100.00;101877.84;2079625;28;20432;-69
2023/09/05 04:06:17;;;;;;;0.17;0.17;;;;;;;19.88;100.00;101872.22;2078993;28;20185;-68
2023/09/05 04:07:21;;;;;;;0.20;0.10;;;;;;;19.81;100.00;101872.50;2078731;28;20234;-69
2023/09/05 04:08:22;;;;;;;0.00;0.00;;;;;;;19.86;100.00;101873.94;2080667;28;20658;-64
2023/09/05 04:09:22;;;;;;;0.20;0.20;;;;;;;20.50;100.00;101865.06;2076493;28;21122;-60
2023/09/05 04:10:23;;;;;;;0.03;0.03;;;;;;;21.42;100.00;101869.97;2077099;28;20577;-59
2023/09/05 04:11:23;;;;;;;0.10;0.10;;;;;;;21.98;100.00;101861.53;2079256;28;20597;-60
2023/09/05 04:12:23;;;;;;;0.10;0.10;;;;;;;22.52;100.00;101873.16;2079739;28;20177;-60
2023/09/05 04:13:24;;;;;;;0.10;0.10;;;;;;;22.78;100.00;101862.84;2079386;28;20185;-58
2023/09/05 04:14:24;;;;;;;0.10;0.10;;;;;;;23.18;100.00;101868.72;2082780;28;20200;-57
2023/09/05 04:15:25;;;;;;;0.00;0.00;;;;;;;23.40;100.00;101866.25;2083732;28;20228;-58
2023/09/05 04:16:25;;;;;;;0.20;0.10;;;;;;;23.67;100.00;101854.56;2084241;28;20229;-58
2023/09/05 04:17:25;;;;;;;0.00;0.00;;;;;;;23.90;100.00;101852.84;2085403;28;20180;-58
2023/09/05 04:18:26;;;;;;;0.00;0.00;;;;;;;23.91;100.00;101843.81;2082332;28;20195;-58
2023/09/05 04:19:26;;;;;;;0.20;0.17;;;;;;;24.08;100.00;101849.69;2083279;28;20187;-57
2023/09/05 04:20:28;;;;;;;0.10;0.10;;;;;;;24.18;100.00;101851.91;2080128;28;20250;-57
2023/09/05 04:21:28;;;;;;;0.10;0.10;;;;;;;23.77;100.00;101778.75;2085241;28;20184;-57
2023/09/05 04:22:28;;;;;;;0.00;0.00;;;;;;;24.22;100.00;101854.50;2084715;28;20192;-58
2023/09/05 04:23:29;;;;;;;0.10;0.10;;;;;;;24.14;100.00;101842.03;2084768;28;20184;-59
2023/09/05 04:24:29;;;;;;;0.00;0.00;;;;;;;24.22;100.00;101843.19;2083296;28;20567;-59
2023/09/05 04:25:32;;;;;;;0.10;0.10;;;;;;;24.29;100.00;101846.34;2084047;28;20195;-57
2023/09/05 04:26:37;;;;;;;0.30;0.10;;;;;;;23.26;100.00;101683.22;2083881;28;20196;-60
2023/09/05 04:27:38;;;;;;;0.07;0.07;;;;;;;24.35;100.00;101846.41;2086276;28;20228;-59
2023/09/05 04:28:38;;;;;;;1.13;0.83;;;;;;;24.39;100.00;101846.97;2083714;28;20192;-58
2023/09/05 04:29:38;;;;;;;0.10;0.10;;;;;;;24.42;100.00;101851.66;2078927;28;20272;-59
2023/09/05 04:30:39;;;;;;;0.77;0.73;;;;;;;24.55;100.00;101846.34;2079159;28;20207;-60
2023/09/05 04:31:39;;;;;;;0.10;0.10;;;;;;;24.33;100.00;101820.63;2080988;28;20191;-59
2023/09/05 04:32:42;;;;;;;0.37;0.27;;;;;;;24.54;100.00;101836.31;2084600;28;20243;-59
2023/09/05 04:33:43;;;;;;;0.10;0.10;;;;;;;24.37;100.00;101841.03;2084781;28;20249;-58
2023/09/05 04:34:43;;;;;;;0.00;0.00;;;;;;;24.28;100.00;101849.69;2082349;28;20188;-58
2023/09/05 04:35:44;;;;;;;0.10;0.10;;;;;;;24.35;100.00;101846.41;2084533;28;20219;-58
2023/09/05 04:36:44;;;;;;;0.20;0.20;;;;;;;23.61;100.00;101717.88;2086309;28;20215;-59
2023/09/05 04:37:44;;;;;;;0.10;0.00;;;;;;;24.47;100.00;101846.03;2086322;28;20266;-59
2023/09/05 04:38:45;;;;;;;0.13;0.13;;;;;;;24.32;100.00;101824.75;2080049;28;20262;-59
2023/09/05 04:39:45;;;;;;;0.10;0.10;;;;;;;24.36;100.00;101845.16;2083735;28;20196;-57
2023/09/05 04:40:46;;;;;;;0.20;0.20;;;;;;;24.24;100.00;101843.44;2078083;28;20276;-59
2023/09/05 04:41:46;;;;;;;0.00;0.00;;;;;;;24.14;100.00;101847.72;2084389;28;20223;-59
2023/09/05 04:42:46;;;;;;;0.93;0.50;;;;;;;24.00;100.00;101849.34;2079659;28;20298;-59
2023/09/05 04:43:47;;;;;;;0.07;0.07;;;;;;;23.86;100.00;101838.88;2080876;28;20192;-59